Centerville, MA (02632)

7:37 AM EST on December 20, 2014 (GMT -0500)
KMACENTE2 | Change Station
CLOSE
Current Station
Personal Weather Station
Location: Centerville, MA
Elevation: 80 ft
Nearby Weather Stations

Elev 80 ft 41.68 °N, 70.37 °W | Updated 9 seconds ago

Overcast
Overcast
32.7 °F
Feels Like 33 °F
N
3.0
Wind Variable Wind from NE
Gusts 3.0 mph

Today
High -- | Low -- °F
--% Chance of Precip.
Yesterday
High -- | Low -- °F
Precip. -- in
7:04 AM 4:13 PM
Waning Crescent, 3% visible
Pressure 30.20 in
Visibility 10.0 miles
Clouds Scattered Clouds 2300 ft
Mostly Cloudy 2900 ft
Overcast 3400 ft
Windchill 33 °F
Dew Point 29 °F
Humidity 87%
Rainfall 0.00 in
Snow Depth Not available.
UV 0 out of 12
Pollen .10 out of 12
Air Quality Not available.
Flu Activity Not available.
METAR KHYA 201156Z VRB03KT 10SM SCT023 BKN029 OVC034 01/M02 A3019 RMK AO2 SLP225 T00111017 10017 20006 53018

More Conditions Fewer Conditions

Pressure 30.20 in
Visibility 10.0 miles
Clouds Scattered Clouds 2300 ft
Mostly Cloudy 2900 ft
Overcast 3400 ft
Windchill 33 °F
Dew Point 29 °F
Humidity 87%
Rainfall 0.00 in
Snow Depth Not available.
UV 0 out of 12
Pollen .10 out of 12
Air Quality Not available.
Flu Activity Not available.
METAR KHYA 201156Z VRB03KT 10SM SCT023 BKN029 OVC034 01/M02 A3019 RMK AO2 SLP225 T00111017 10017 20006 53018

More Conditions Fewer Conditions

10-Day Weather Forecast

Almanac

Astronomy

Dec. 20, 2014 Rise Set
Actual Time
Civil Twilight
Nautical Twilight
Astronomical Twilight
Moon
Length of Visible Light
Length of Day
Tomorrow will be .
, % of the Moon is Illuminated

Today's Extremes

State Highs State Lows

Community

WunderPhotos

Upload Photos

1,779,163 photos uploaded!

WunderBlogs® & News

Nearby

Air Quality

  Air Quality AQ Index Pollutant
Not available.

Snow Depth

Station Depth Elevation

Earthquake Activity

City Distance Mag. Time & Date
Minimum magnitude displayed is 2.5.

Coastal Water Temperatures

Place Temperature

Nearby Weather Stations